createdAt,value
2023-04-19T00:00:06.598Z,0.00
2023-04-19T00:00:17.603Z,0.00
2023-04-19T00:00:28.597Z,0.00
2023-04-19T00:00:39.586Z,0.00
2023-04-19T00:00:50.607Z,0.00
2023-04-19T00:01:01.621Z,0.00
2023-04-19T00:01:12.650Z,0.00
2023-04-19T00:01:24.612Z,0.00
2023-04-19T00:01:35.613Z,0.00
2023-04-19T00:01:47.652Z,0.00
2023-04-19T00:01:59.730Z,0.00
2023-04-19T00:02:11.688Z,0.00
2023-04-19T00:02:22.874Z,0.00
2023-04-19T00:02:34.814Z,0.00
2023-04-19T00:02:46.689Z,0.00
2023-04-19T00:02:57.780Z,0.00
2023-04-19T00:03:09.931Z,0.00
2023-04-19T00:03:21.748Z,0.00
2023-04-19T00:03:32.801Z,0.00
2023-04-19T00:03:43.803Z,0.00
2023-04-19T00:03:54.712Z,0.00
2023-04-19T00:04:06.787Z,0.00
2023-04-19T00:04:19.089Z,0.00
2023-04-19T00:04:29.725Z,0.00
2023-04-19T00:04:40.681Z,0.00
2023-04-19T00:04:52.843Z,0.00
2023-04-19T00:05:04.835Z,0.00
2023-04-19T00:05:15.663Z,0.00
2023-04-19T00:05:26.660Z,0.00
2023-04-19T00:05:37.594Z,0.00
2023-04-19T00:05:48.639Z,0.00
2023-04-19T00:05:59.630Z,0.00
2023-04-19T00:06:10.605Z,0.00
2023-04-19T00:06:21.627Z,0.00
2023-04-19T00:06:32.627Z,0.00
2023-04-19T00:06:43.619Z,0.00
2023-04-19T00:06:54.608Z,0.00
2023-04-19T00:07:05.618Z,0.00
2023-04-19T00:07:16.621Z,0.00
2023-04-19T00:12:47.596Z,0.00
2023-04-19T00:12:58.578Z,0.00
2023-04-19T00:13:09.581Z,0.00
2023-04-19T00:13:20.672Z,0.00
2023-04-19T00:13:32.637Z,0.00
2023-04-19T00:13:43.632Z,0.00
2023-04-19T00:13:54.616Z,0.00
2023-04-19T00:14:05.618Z,0.00
2023-04-19T00:14:16.840Z,0.00
2023-04-19T00:14:28.621Z,0.00
2023-04-19T00:14:39.627Z,0.00
2023-04-19T00:14:50.622Z,0.00
2023-04-19T00:15:01.615Z,0.00
2023-04-19T00:15:12.638Z,0.00
2023-04-19T00:15:24.597Z,0.00
2023-04-19T00:15:35.620Z,0.00
2023-04-19T00:15:46.625Z,0.00
2023-04-19T00:15:57.626Z,0.00
2023-04-19T00:16:08.610Z,0.00
2023-04-19T00:16:19.646Z,0.00
2023-04-19T00:16:31.652Z,0.00
2023-04-19T00:16:42.631Z,0.00
2023-04-19T00:16:54.672Z,0.00
2023-04-19T00:17:05.650Z,0.00
2023-04-19T00:17:16.637Z,0.00
2023-04-19T00:17:27.664Z,0.00
2023-04-19T00:17:38.609Z,0.00
2023-04-19T00:17:49.675Z,0.00
2023-04-19T00:18:00.648Z,0.00
2023-04-19T00:18:11.572Z,0.00
2023-04-19T00:32:54.501Z,0.00
2023-04-19T00:33:05.676Z,0.00
2023-04-19T00:33:16.613Z,0.00
2023-04-19T00:33:28.604Z,0.00
2023-04-19T00:33:39.602Z,0.00
2023-04-19T00:33:50.573Z,0.00
2023-04-19T00:34:01.571Z,0.00
2023-04-19T00:34:12.720Z,0.00
2023-04-19T00:34:23.643Z,0.00
2023-04-19T00:34:35.599Z,0.00
2023-04-19T00:34:46.574Z,0.00
2023-04-19T00:34:57.615Z,0.00
2023-04-19T00:35:08.612Z,0.00
2023-04-19T00:35:19.620Z,0.00
2023-04-19T00:35:30.608Z,0.00
2023-04-19T00:35:41.617Z,0.00
2023-04-19T00:35:52.645Z,0.00
2023-04-19T00:36:04.592Z,0.00
2023-04-19T00:36:15.593Z,0.00
2023-04-19T00:36:26.603Z,0.00
2023-04-19T00:36:37.611Z,0.00
2023-04-19T00:36:48.602Z,0.00
2023-04-19T00:36:59.593Z,0.00
2023-04-19T00:37:10.578Z,0.00
2023-04-19T00:37:21.572Z,0.00
2023-04-19T00:37:32.582Z,0.00
2023-04-19T00:37:43.578Z,0.00
2023-04-19T00:37:54.573Z,0.00
2023-04-19T00:38:05.570Z,0.00
2023-04-19T00:38:16.658Z,0.00
2023-04-19T00:40:03.635Z,0.00
2023-04-19T00:40:15.602Z,0.00
2023-04-19T00:40:27.635Z,0.00
2023-04-19T00:40:38.633Z,0.00
2023-04-19T00:40:50.603Z,0.00
2023-04-19T00:41:01.586Z,0.00
2023-04-19T00:41:12.593Z,0.00
2023-04-19T00:41:23.618Z,0.00
2023-04-19T00:41:34.686Z,0.00
2023-04-19T00:41:45.593Z,0.00
2023-04-19T00:41:56.612Z,0.00
2023-04-19T00:42:07.610Z,0.00
2023-04-19T00:49:15.727Z,0.00
2023-04-19T00:49:16.589Z,0.00
2023-04-19T00:49:27.593Z,0.00
2023-04-19T00:49:38.620Z,0.00
2023-04-19T00:49:49.625Z,0.00
2023-04-19T00:50:00.660Z,0.00
2023-04-19T00:50:23.607Z,0.00
2023-04-19T00:50:34.580Z,0.00
2023-04-19T00:50:45.586Z,0.00
2023-04-19T00:50:56.584Z,0.00
2023-04-19T00:51:07.608Z,0.00
2023-04-19T01:02:56.135Z,0.00
2023-04-19T01:03:06.839Z,0.00
2023-04-19T01:03:18.817Z,0.00
2023-04-19T01:03:30.983Z,0.00
2023-04-19T01:03:41.917Z,0.00
2023-04-19T01:03:53.797Z,0.00
2023-04-19T01:04:04.853Z,0.00
2023-04-19T01:04:17.006Z,0.00
2023-04-19T01:04:27.823Z,0.00
2023-04-19T01:04:38.838Z,0.00
2023-04-19T01:04:50.762Z,0.00
2023-04-19T01:05:01.758Z,0.00
2023-04-19T01:05:12.736Z,0.00
2023-04-19T01:05:23.728Z,0.00
2023-04-19T01:05:34.826Z,0.00
2023-04-19T01:05:45.758Z,0.00
2023-04-19T01:05:56.776Z,0.00
2023-04-19T01:06:08.742Z,0.00
2023-04-19T01:06:19.738Z,0.00
2023-04-19T01:06:30.730Z,0.00
2023-04-19T01:06:41.719Z,0.00
2023-04-19T01:06:52.709Z,0.00
2023-04-19T01:07:03.709Z,0.00
2023-04-19T01:07:14.815Z,0.00
2023-04-19T01:07:26.791Z,0.00
2023-04-19T01:07:38.758Z,0.00
2023-04-19T01:07:49.751Z,0.00
2023-04-19T01:08:00.791Z,0.00
2023-04-19T01:08:11.727Z,0.00
2023-04-19T01:08:22.709Z,0.00
2023-04-19T01:08:33.721Z,0.00
2023-04-19T01:08:44.728Z,0.00
2023-04-19T01:08:55.720Z,0.00
2023-04-19T01:09:06.735Z,0.00
2023-04-19T01:09:17.717Z,0.00
2023-04-19T01:09:28.728Z,0.00
2023-04-19T01:09:39.728Z,0.00
2023-04-19T01:09:50.731Z,0.00
2023-04-19T01:10:01.842Z,0.00
2023-04-19T01:10:13.741Z,0.00
2023-04-19T01:10:24.734Z,0.00
2023-04-19T01:10:35.730Z,0.00
2023-04-19T01:10:46.718Z,0.00
2023-04-19T01:10:57.798Z,0.00
2023-04-19T01:11:09.797Z,0.00
2023-04-19T01:11:21.744Z,0.00
2023-04-19T01:11:32.731Z,0.00
2023-04-19T01:11:43.802Z,0.00
2023-04-19T01:11:54.801Z,0.00
2023-04-19T01:12:06.768Z,0.00
2023-04-19T01:12:18.729Z,0.00
2023-04-19T01:12:29.732Z,0.00
2023-04-19T01:12:40.729Z,0.00
2023-04-19T01:12:51.737Z,0.00
2023-04-19T01:13:02.729Z,0.00
2023-04-19T01:13:14.738Z,0.00
2023-04-19T01:13:25.734Z,0.00
2023-04-19T01:13:36.722Z,0.00
2023-04-19T01:13:47.705Z,0.00
2023-04-19T01:13:58.702Z,0.00
2023-04-19T01:14:09.805Z,0.00
2023-04-19T01:14:21.767Z,0.00
2023-04-19T01:14:32.768Z,0.00
2023-04-19T01:14:43.756Z,0.00
2023-04-19T01:14:54.770Z,0.00
2023-04-19T01:15:06.731Z,0.00
2023-04-19T01:15:17.725Z,0.00
2023-04-19T01:15:28.727Z,0.00
2023-04-19T01:15:39.764Z,0.00
2023-04-19T01:15:50.819Z,0.00
2023-04-19T01:16:01.810Z,0.00
2023-04-19T01:16:13.784Z,0.00
2023-04-19T01:16:25.805Z,0.00
2023-04-19T01:16:37.774Z,0.00
2023-04-19T01:16:49.757Z,0.00
2023-04-19T01:17:00.746Z,0.00
2023-04-19T01:17:11.747Z,0.00
2023-04-19T01:17:22.799Z,0.00
2023-04-19T01:17:33.752Z,0.00
2023-04-19T01:17:45.775Z,0.00
2023-04-19T01:17:57.800Z,0.00
2023-04-19T01:18:09.756Z,0.00
2023-04-19T01:18:20.758Z,0.00
2023-04-19T01:18:32.806Z,0.00
2023-04-19T01:18:43.744Z,0.00
2023-04-19T01:18:54.747Z,0.00
2023-04-19T01:19:05.729Z,0.00
2023-04-19T01:19:16.743Z,0.00
2023-04-19T01:19:28.736Z,0.00
2023-04-19T01:19:39.738Z,0.00
2023-04-19T01:19:50.731Z,0.00
2023-04-19T01:20:01.811Z,0.00
2023-04-19T01:20:13.738Z,0.00
2023-04-19T01:20:25.739Z,0.00
2023-04-19T01:20:36.741Z,0.00
2023-04-19T01:20:47.761Z,0.00
2023-04-19T01:20:58.766Z,0.00
2023-04-19T01:21:09.742Z,0.00
2023-04-19T01:21:20.761Z,0.00
2023-04-19T01:21:31.759Z,0.00
2023-04-19T01:21:42.745Z,0.00
2023-04-19T01:21:53.740Z,0.00
2023-04-19T01:22:04.763Z,0.00
2023-04-19T01:22:15.760Z,0.00
2023-04-19T01:22:26.766Z,0.00
2023-04-19T01:22:37.810Z,0.00
2023-04-19T01:22:49.762Z,0.00
2023-04-19T01:23:00.749Z,0.00
2023-04-19T01:23:11.834Z,0.00
2023-04-19T01:23:23.762Z,0.00
2023-04-19T01:23:34.752Z,0.00
2023-04-19T01:23:45.748Z,0.00
2023-04-19T01:23:56.736Z,0.00
2023-04-19T01:24:07.734Z,0.00
2023-04-19T01:24:18.750Z,0.00
2023-04-19T01:24:29.742Z,0.00
2023-04-19T01:24:40.757Z,0.00
2023-04-19T01:24:51.821Z,0.00
2023-04-19T01:25:03.768Z,0.00
2023-04-19T01:25:15.784Z,0.00
2023-04-19T01:25:27.766Z,0.00
2023-04-19T01:25:38.754Z,0.00
2023-04-19T01:25:50.775Z,0.00
2023-04-19T01:26:02.764Z,0.00
2023-04-19T01:26:13.774Z,0.00
2023-04-19T01:26:25.745Z,0.00
2023-04-19T01:26:37.736Z,0.00
2023-04-19T01:26:48.732Z,0.00
2023-04-19T01:26:59.750Z,0.00
2023-04-19T01:27:10.753Z,0.00
2023-04-19T01:27:21.750Z,0.00
2023-04-19T01:27:33.773Z,0.00
2023-04-19T01:27:45.836Z,0.00
2023-04-19T01:27:56.762Z,0.00
2023-04-19T01:28:08.723Z,0.00
2023-04-19T01:28:19.730Z,0.00
2023-04-19T01:28:30.712Z,0.00
2023-04-19T01:28:41.718Z,0.00
2023-04-19T01:28:52.752Z,0.00
2023-04-19T01:29:03.743Z,0.00
2023-04-19T01:29:14.727Z,0.00
2023-04-19T01:29:25.726Z,0.00
2023-04-19T01:29:36.745Z,0.00
2023-04-19T01:29:47.751Z,0.00
2023-04-19T01:29:58.750Z,0.00
2023-04-19T01:30:10.724Z,0.00
2023-04-19T01:30:21.776Z,0.00
2023-04-19T01:30:33.742Z,0.00
2023-04-19T01:30:44.734Z,0.00
2023-04-19T01:30:55.760Z,0.00
2023-04-19T01:31:07.839Z,0.00
2023-04-19T01:31:18.747Z,0.00
2023-04-19T01:31:29.822Z,0.00
2023-04-19T01:31:40.822Z,0.00
2023-04-19T01:31:51.748Z,0.00
2023-04-19T01:32:02.735Z,0.00
2023-04-19T01:32:14.728Z,0.00
2023-04-19T01:32:25.762Z,0.00
2023-04-19T01:32:36.792Z,0.00
2023-04-19T01:32:47.742Z,0.00
2023-04-19T01:32:58.802Z,0.00
2023-04-19T01:33:09.729Z,0.00
2023-04-19T01:33:20.747Z,0.00
2023-04-19T01:33:31.748Z,0.00
2023-04-19T01:33:42.753Z,0.00
2023-04-19T01:33:53.746Z,0.00
2023-04-19T01:34:04.746Z,0.00
2023-04-19T01:34:15.909Z,0.00
2023-04-19T01:34:26.715Z,0.00
2023-04-19T01:34:37.711Z,0.00
2023-04-19T01:34:48.720Z,0.00
2023-04-19T01:34:59.719Z,0.00
2023-04-19T01:35:10.718Z,0.00
2023-04-19T01:35:21.739Z,0.00
2023-04-19T01:35:32.740Z,0.00
2023-04-19T01:35:43.733Z,0.00
2023-04-19T01:35:54.719Z,0.00
2023-04-19T01:41:41.225Z,0.00
2023-04-19T01:42:11.229Z,0.00
2023-04-19T01:42:18.627Z,0.00
2023-04-19T01:42:31.218Z,0.00
2023-04-19T01:42:42.664Z,0.00
2023-04-19T01:43:09.203Z,0.00
2023-04-19T01:43:18.269Z,0.00
2023-04-19T01:43:28.179Z,0.00
2023-04-19T01:43:42.163Z,0.00
2023-04-19T01:43:55.189Z,0.00
2023-04-19T01:44:05.184Z,0.00
2023-04-19T01:44:35.652Z,0.00
2023-04-19T01:44:49.149Z,0.00
2023-04-19T01:44:57.592Z,0.00
2023-04-19T01:45:10.194Z,0.00
2023-04-19T01:45:20.643Z,0.00
2023-04-19T01:45:33.151Z,0.00
2023-04-19T01:45:43.663Z,0.00
2023-04-19T01:45:55.650Z,0.00
2023-04-19T01:46:07.734Z,0.00
2023-04-19T01:46:21.262Z,0.00
2023-04-19T01:46:32.214Z,0.00
2023-04-19T01:46:41.634Z,0.00
2023-04-19T01:46:53.653Z,0.00
2023-04-19T01:47:03.694Z,0.00
2023-04-19T01:47:16.193Z,0.00
2023-04-19T01:47:26.210Z,0.00
2023-04-19T01:47:36.619Z,0.00
2023-04-19T01:47:50.237Z,0.00
2023-04-19T01:47:59.604Z,0.00
2023-04-19T01:48:10.765Z,0.00
2023-04-19T01:48:21.659Z,0.00
2023-04-19T01:48:36.225Z,0.00
2023-04-19T01:48:44.611Z,0.00
2023-04-19T01:48:56.638Z,0.00
2023-04-19T01:49:07.654Z,0.00
2023-04-19T01:49:19.628Z,0.00
2023-04-19T01:49:31.604Z,0.00
2023-04-19T01:49:43.684Z,0.00
2023-04-19T01:50:01.279Z,0.00
2023-04-19T01:50:06.693Z,0.00
2023-04-19T01:50:18.616Z,0.00
2023-04-19T01:50:31.152Z,0.00
2023-04-19T01:50:41.616Z,0.00
2023-04-19T01:50:53.619Z,0.00
2023-04-19T01:51:05.614Z,0.00
2023-04-19T01:51:16.637Z,0.00
2023-04-19T01:51:28.601Z,0.00
2023-04-19T01:51:40.616Z,0.00
2023-04-19T01:51:52.621Z,0.00
2023-04-19T01:52:04.608Z,0.00
2023-04-19T01:52:16.688Z,0.00
2023-04-19T01:52:27.608Z,0.00
2023-04-19T01:52:40.159Z,0.00
2023-04-19T01:52:51.175Z,0.00
2023-04-19T01:53:02.677Z,0.00
2023-04-19T01:53:14.604Z,0.00
2023-04-19T01:53:25.582Z,0.00
2023-04-19T01:53:37.658Z,0.00
2023-04-19T01:53:48.566Z,0.00
2023-04-19T01:53:59.635Z,0.00
2023-04-19T01:54:12.161Z,0.00
2023-04-19T01:54:22.636Z,0.00
2023-04-19T01:54:34.616Z,0.00
2023-04-19T01:54:46.610Z,0.00
2023-04-19T01:54:58.611Z,0.00
2023-04-19T01:55:09.688Z,0.00
2023-04-19T01:55:23.177Z,0.00
2023-04-19T01:55:33.692Z,0.00
2023-04-19T01:55:45.168Z,0.00
2023-04-19T01:55:57.173Z,0.00
2023-04-19T01:56:07.655Z,0.00
2023-04-19T01:56:18.600Z,0.00
2023-04-19T01:56:29.611Z,0.00
2023-04-19T01:56:41.150Z,0.00
2023-04-19T01:56:52.148Z,0.00
2023-04-19T01:57:02.682Z,0.00
2023-04-19T01:57:13.613Z,0.00
2023-04-19T01:57:25.612Z,0.00
2023-04-19T01:57:37.614Z,0.00
2023-04-19T01:57:48.580Z,0.00
2023-04-19T01:57:59.602Z,0.00
2023-04-19T01:58:11.176Z,0.00
2023-04-19T01:58:22.161Z,0.00
2023-04-19T01:58:33.662Z,0.00
2023-04-19T01:58:43.610Z,0.00
2023-04-19T01:59:07.171Z,0.00
2023-04-19T01:59:08.641Z,0.00
2023-04-19T01:59:20.612Z,0.00
2023-04-19T01:59:31.612Z,0.00
2023-04-19T01:59:42.613Z,0.00
2023-04-19T01:59:53.584Z,0.00
2023-04-19T02:00:16.579Z,0.00
2023-04-19T02:00:27.584Z,0.00
2023-04-19T02:00:38.590Z,0.00
2023-04-19T02:00:49.648Z,0.00
2023-04-19T02:01:00.615Z,0.00
2023-04-19T02:01:11.593Z,0.00
2023-04-19T02:01:22.664Z,0.00
2023-04-19T02:05:32.862Z,0.00
2023-04-19T02:05:44.622Z,0.00
2023-04-19T02:05:56.593Z,0.00
2023-04-19T02:06:07.587Z,0.00
2023-04-19T02:06:18.596Z,0.00
2023-04-19T02:06:29.617Z,0.00
2023-04-19T02:06:41.579Z,0.00
2023-04-19T02:06:52.578Z,0.00
2023-04-19T02:07:03.569Z,0.00
2023-04-19T02:07:14.567Z,0.00
2023-04-19T02:07:26.574Z,0.00
2023-04-19T02:07:37.585Z,0.00
2023-04-19T02:07:48.580Z,0.00
2023-04-19T02:07:59.577Z,0.00
2023-04-19T02:08:10.576Z,0.00
2023-04-19T02:08:21.567Z,0.00
2023-04-19T02:08:33.594Z,0.00
2023-04-19T02:08:44.611Z,0.00
2023-04-19T02:08:55.603Z,0.00
2023-04-19T02:09:07.570Z,0.00
2023-04-19T02:09:18.597Z,0.00
2023-04-19T02:09:29.579Z,0.00
2023-04-19T02:09:40.594Z,0.00
2023-04-19T02:09:51.606Z,0.00
2023-04-19T02:10:02.606Z,0.00
2023-04-19T02:10:13.610Z,0.00
2023-04-19T02:10:24.596Z,0.00
2023-04-19T02:10:36.604Z,0.00
2023-04-19T02:10:48.583Z,0.00
2023-04-19T02:10:59.589Z,0.00
2023-04-19T02:11:11.596Z,0.00
2023-04-19T02:11:22.583Z,0.00
2023-04-19T02:11:33.578Z,0.00
2023-04-19T02:11:45.610Z,0.00
2023-04-19T02:11:57.604Z,0.00
2023-04-19T02:12:08.600Z,0.00
2023-04-19T02:12:19.598Z,0.00
2023-04-19T02:12:31.596Z,0.00
2023-04-19T02:12:42.579Z,0.00
2023-04-19T02:12:53.597Z,0.00
2023-04-19T02:13:05.593Z,0.00
2023-04-19T02:13:16.600Z,0.00
2023-04-19T02:13:28.571Z,0.00
2023-04-19T02:13:39.595Z,0.00
2023-04-19T02:13:50.570Z,0.00
2023-04-19T02:14:01.576Z,0.00
2023-04-19T02:14:13.794Z,0.00
2023-04-19T02:14:24.603Z,0.00
2023-04-19T02:14:35.586Z,0.00
2023-04-19T02:14:46.569Z,0.00
2023-04-19T02:14:57.556Z,0.00
2023-04-19T02:15:08.543Z,0.00
2023-04-19T02:15:19.634Z,0.00
2023-04-19T02:15:31.605Z,0.00
2023-04-19T02:15:42.591Z,0.00
2023-04-19T02:15:54.622Z,0.00
2023-04-19T02:16:05.575Z,0.00
2023-04-19T02:16:16.604Z,0.00
2023-04-19T02:16:27.607Z,0.00
2023-04-19T02:16:38.610Z,0.00
2023-04-19T02:16:49.579Z,0.00
2023-04-19T02:17:00.568Z,0.00
2023-04-19T02:17:11.546Z,0.00
2023-04-19T02:17:22.575Z,0.00
2023-04-19T02:17:33.646Z,0.00
2023-04-19T02:17:44.582Z,0.00
2023-04-19T02:28:05.802Z,0.00
2023-04-19T02:28:16.591Z,0.00
2023-04-19T02:28:27.585Z,0.00
2023-04-19T02:28:38.594Z,0.00
2023-04-19T02:28:49.586Z,0.00
2023-04-19T02:29:00.576Z,0.00
2023-04-19T02:29:11.577Z,0.00
2023-04-19T02:29:22.596Z,0.00
2023-04-19T02:29:33.595Z,0.00
2023-04-19T02:29:44.583Z,0.00
2023-04-19T02:29:55.574Z,0.00
2023-04-19T02:30:06.569Z,0.00
2023-04-19T02:30:17.633Z,0.00
2023-04-19T02:30:29.610Z,0.00
2023-04-19T02:30:41.579Z,0.00
2023-04-19T02:30:52.592Z,0.00
2023-04-19T02:31:03.573Z,0.00
2023-04-19T02:31:14.595Z,0.00
2023-04-19T02:31:26.662Z,0.00
2023-04-19T02:31:37.590Z,0.00
2023-04-19T02:31:49.630Z,0.00
2023-04-19T02:32:01.682Z,0.00
2023-04-19T02:32:12.600Z,0.00
2023-04-19T02:32:23.611Z,0.00
2023-04-19T02:32:34.623Z,0.00
2023-04-19T02:32:46.601Z,0.00
2023-04-19T02:32:57.598Z,0.00
2023-04-19T02:33:08.618Z,0.00
2023-04-19T02:33:20.570Z,0.00
2023-04-19T02:33:31.550Z,0.00
2023-04-19T02:33:42.559Z,0.00
2023-04-19T02:33:53.541Z,0.00
2023-04-19T02:34:04.542Z,0.00
2023-04-19T02:34:15.911Z,0.00
2023-04-19T02:34:27.593Z,0.00
2023-04-19T02:34:38.568Z,0.00
2023-04-19T02:34:49.593Z,0.00
2023-04-19T02:35:00.587Z,0.00
2023-04-19T02:35:11.588Z,0.00
2023-04-19T02:35:22.623Z,0.00
2023-04-19T02:35:34.625Z,0.00
2023-04-19T02:35:46.583Z,0.00
2023-04-19T02:35:58.573Z,0.00
2023-04-19T02:36:09.587Z,0.00
2023-04-19T02:36:20.576Z,0.00
2023-04-19T02:36:31.591Z,0.00
2023-04-19T02:36:42.582Z,0.00
2023-04-19T03:03:13.340Z,0.00
2023-04-19T03:03:23.765Z,0.00
2023-04-19T03:03:35.812Z,0.00
2023-04-19T03:03:46.885Z,0.00
2023-04-19T03:03:57.865Z,0.00
2023-04-19T03:04:09.817Z,0.00
2023-04-19T03:04:20.783Z,0.00
2023-04-19T03:04:31.836Z,0.00
2023-04-19T03:04:42.741Z,0.00
2023-04-19T03:04:53.749Z,0.00
2023-04-19T03:05:04.740Z,0.00
2023-04-19T03:05:15.746Z,0.00
2023-04-19T03:05:27.751Z,0.00
2023-04-19T03:05:39.756Z,0.00
2023-04-19T03:05:50.743Z,0.00
2023-04-19T03:06:01.756Z,0.00
2023-04-19T03:06:12.752Z,0.00
2023-04-19T03:06:23.759Z,0.00
2023-04-19T03:06:34.744Z,0.00
2023-04-19T03:06:45.732Z,0.00
2023-04-19T03:06:56.735Z,0.00
2023-04-19T03:07:07.710Z,0.00
2023-04-19T03:07:18.693Z,0.00
2023-04-19T03:07:29.797Z,0.00
2023-04-19T03:07:44.338Z,0.00
2023-04-19T03:07:53.740Z,0.00
2023-04-19T03:08:04.752Z,0.00
2023-04-19T03:08:15.754Z,0.00
2023-04-19T03:08:26.747Z,0.00
2023-04-19T03:08:37.732Z,0.00
2023-04-19T03:14:55.618Z,0.00
2023-04-19T03:15:07.590Z,0.00
2023-04-19T03:15:19.584Z,0.00
2023-04-19T03:15:30.598Z,0.00
2023-04-19T03:15:42.611Z,0.00
2023-04-19T03:15:54.573Z,0.00
2023-04-19T03:16:05.533Z,0.00
2023-04-19T03:16:16.606Z,0.00
2023-04-19T03:16:27.569Z,0.00
2023-04-19T03:16:38.569Z,0.00
2023-04-19T03:16:49.562Z,0.00
2023-04-19T03:17:00.562Z,0.00
2023-04-19T03:17:11.552Z,0.00
2023-04-19T03:17:22.620Z,0.00
2023-04-19T03:17:33.616Z,0.00
2023-04-19T03:17:45.634Z,0.00
2023-04-19T03:17:56.585Z,0.00
2023-04-19T03:18:08.573Z,0.00
2023-04-19T03:18:19.556Z,0.00
2023-04-19T03:18:30.583Z,0.00
2023-04-19T03:18:41.576Z,0.00
2023-04-19T03:18:52.582Z,0.00
2023-04-19T03:19:03.581Z,0.00
2023-04-19T03:19:14.764Z,0.00
2023-04-19T03:19:26.745Z,0.00
2023-04-19T03:19:38.746Z,0.00
2023-04-19T03:19:49.734Z,0.00
2023-04-19T03:20:00.744Z,0.00
2023-04-19T03:20:11.733Z,0.00
2023-04-19T03:20:22.737Z,0.00
2023-04-19T03:20:33.733Z,0.00
2023-04-19T03:20:44.746Z,0.00
2023-04-19T03:20:55.739Z,0.00
2023-04-19T03:21:06.740Z,0.00
2023-04-19T03:21:17.755Z,0.00
2023-04-19T03:21:28.749Z,0.00
2023-04-19T03:21:39.739Z,0.00
2023-04-19T03:21:51.728Z,0.00
2023-04-19T03:22:02.720Z,0.00
2023-04-19T03:22:13.699Z,0.00
2023-04-19T03:22:24.714Z,0.00
2023-04-19T03:22:35.719Z,0.00
2023-04-19T03:22:46.710Z,0.00
2023-04-19T03:22:57.717Z,0.00
2023-04-19T03:23:08.735Z,0.00
2023-04-19T03:23:19.757Z,0.00
2023-04-19T03:23:30.756Z,0.00
2023-04-19T03:23:41.749Z,0.00
2023-04-19T03:23:52.754Z,0.00
2023-04-19T03:24:04.744Z,0.00
2023-04-19T03:24:16.994Z,0.00
2023-04-19T03:24:28.730Z,0.00
2023-04-19T03:24:39.737Z,0.00
2023-04-19T03:24:51.732Z,0.00
2023-04-19T03:47:21.495Z,1.00
2023-04-19T03:47:32.517Z,1.00
2023-04-19T03:47:44.496Z,1.00
2023-04-19T03:47:55.530Z,1.00
2023-04-19T03:48:07.461Z,1.00
2023-04-19T03:48:19.443Z,1.00
2023-04-19T03:48:31.416Z,1.00
2023-04-19T03:48:42.468Z,2.00
2023-04-19T03:48:54.456Z,2.00
2023-04-19T03:49:06.432Z,2.00
2023-04-19T03:49:17.467Z,2.00
2023-04-19T03:49:29.458Z,2.00
2023-04-19T03:49:41.422Z,2.00
2023-04-19T03:49:52.473Z,2.00
2023-04-19T03:50:04.433Z,2.00
2023-04-19T03:50:15.576Z,2.00
2023-04-19T03:50:26.651Z,2.00
2023-04-19T03:50:37.733Z,0.00
2023-04-19T03:50:49.600Z,2.00
2023-04-19T03:51:00.636Z,2.00
2023-04-19T03:51:12.596Z,2.00
2023-04-19T03:51:23.657Z,2.00
2023-04-19T03:51:35.629Z,2.00
2023-04-19T03:51:46.584Z,2.00
2023-04-19T03:51:57.621Z,2.00
2023-04-19T03:52:08.671Z,2.00
2023-04-19T03:52:20.639Z,3.00
2023-04-19T03:52:31.586Z,3.00
2023-04-19T03:52:42.640Z,3.00
2023-04-19T03:52:54.611Z,3.00
2023-04-19T03:53:05.669Z,3.00
2023-04-19T03:53:17.645Z,3.00
2023-04-19T03:53:29.641Z,4.00
2023-04-19T03:53:40.586Z,3.00
2023-04-19T03:53:51.642Z,3.00
2023-04-19T03:54:02.598Z,3.00
2023-04-19T03:54:13.802Z,3.00
2023-04-19T03:54:25.610Z,3.00
2023-04-19T03:54:36.669Z,5.00
2023-04-19T03:54:48.624Z,5.00
2023-04-19T03:54:59.675Z,5.00
2023-04-19T03:55:11.649Z,5.00
2023-04-19T03:55:23.620Z,6.00
2023-04-19T03:55:34.590Z,4.00
2023-04-19T03:55:45.645Z,4.00
2023-04-19T03:55:56.581Z,4.00
2023-04-19T03:56:07.669Z,6.00
2023-04-19T03:56:19.615Z,6.00
2023-04-19T03:56:30.676Z,6.00
2023-04-19T03:56:42.635Z,6.00
2023-04-19T03:56:54.619Z,8.00
2023-04-19T03:57:05.661Z,8.00
2023-04-19T03:57:17.676Z,8.00
2023-04-19T03:57:28.578Z,8.00
2023-04-19T03:57:39.638Z,8.00
2023-04-19T03:57:51.625Z,6.00
2023-04-19T03:58:02.579Z,9.00
2023-04-19T03:58:13.629Z,9.00
2023-04-19T03:58:24.673Z,8.00
2023-04-19T03:58:36.632Z,8.00
2023-04-19T03:58:47.580Z,10.00
2023-04-19T03:58:58.622Z,9.00
2023-04-19T03:59:09.681Z,11.00
2023-04-19T03:59:21.684Z,12.00
2023-04-19T03:59:32.586Z,11.00
2023-04-19T03:59:43.673Z,13.00
2023-04-19T03:59:55.635Z,9.00
2023-04-19T04:00:07.616Z,11.00
2023-04-19T04:00:18.687Z,11.00
2023-04-19T04:00:30.648Z,13.00
2023-04-19T04:02:51.590Z,20.00
2023-04-19T04:03:02.638Z,17.00
2023-04-19T04:03:13.582Z,19.00
2023-04-19T04:03:25.731Z,21.00
2023-04-19T04:05:16.108Z,20.00
2023-04-19T04:05:48.552Z,25.00
2023-04-19T04:05:49.483Z,31.00
2023-04-19T04:06:04.377Z,30.00
2023-04-19T04:06:14.345Z,35.00
2023-04-19T04:06:48.415Z,34.00
2023-04-19T04:06:56.365Z,35.00
2023-04-19T04:07:06.479Z,34.00
2023-04-19T04:07:20.296Z,34.00
2023-04-19T04:07:31.295Z,33.00
2023-04-19T04:07:52.532Z,35.00
2023-04-19T04:08:05.812Z,34.00
2023-04-19T04:08:11.419Z,36.00
2023-04-19T04:08:21.574Z,35.00
2023-04-19T04:08:40.286Z,42.00
2023-04-19T04:09:02.276Z,38.00
2023-04-19T04:09:09.450Z,41.00
2023-04-19T04:09:19.412Z,40.00
2023-04-19T04:09:33.289Z,42.00
2023-04-19T04:09:43.530Z,38.00
2023-04-19T04:09:54.412Z,40.00
2023-04-19T04:10:08.327Z,45.00
2023-04-19T04:10:18.344Z,47.00
2023-04-19T04:10:29.462Z,49.00
2023-04-19T04:10:41.526Z,50.00
2023-04-19T04:10:57.299Z,52.00
2023-04-19T04:11:26.286Z,52.00
2023-04-19T04:11:27.523Z,53.00
2023-04-19T04:11:41.331Z,54.00
2023-04-19T04:11:55.321Z,54.00
2023-04-19T04:12:05.323Z,55.00
2023-04-19T04:12:15.287Z,56.00
2023-04-19T04:12:30.282Z,56.00
2023-04-19T04:12:41.333Z,57.00
2023-04-19T04:12:54.323Z,59.00
2023-04-19T04:13:03.305Z,61.00
2023-04-19T04:13:20.802Z,61.00
2023-04-19T04:13:29.318Z,61.00
2023-04-19T04:13:42.292Z,63.00
2023-04-19T04:13:52.275Z,63.00
2023-04-19T04:14:03.520Z,64.00
2023-04-19T04:14:26.417Z,65.00
2023-04-19T04:14:36.316Z,67.00
2023-04-19T04:14:52.289Z,67.00
2023-04-19T04:15:00.290Z,70.00
2023-04-19T04:15:11.309Z,70.00
2023-04-19T04:15:20.443Z,71.00
2023-04-19T04:15:32.442Z,72.00
2023-04-19T04:15:43.450Z,73.00
2023-04-19T04:15:54.516Z,75.00
2023-04-19T04:16:06.463Z,75.00
2023-04-19T04:16:17.524Z,76.00
2023-04-19T04:16:29.538Z,77.00
2023-04-19T04:16:41.535Z,80.00
2023-04-19T04:16:57.304Z,80.00
2023-04-19T04:17:04.390Z,80.00
2023-04-19T04:17:20.362Z,81.00
2023-04-19T04:17:27.480Z,83.00
2023-04-19T04:18:44.474Z,91.00
2023-04-19T04:18:55.382Z,93.00
2023-04-19T04:19:06.467Z,94.00
2023-04-19T04:19:18.405Z,95.00
2023-04-19T04:19:29.388Z,98.00
2023-04-19T04:19:40.441Z,98.00
2023-04-19T04:19:52.395Z,99.00
2023-04-19T04:20:03.378Z,101.00
2023-04-19T04:20:14.440Z,103.00
2023-04-19T04:20:26.448Z,104.00
2023-04-19T04:20:38.398Z,107.00
2023-04-19T04:20:49.388Z,108.00
2023-04-19T04:21:00.456Z,109.00
2023-04-19T04:21:12.429Z,110.00
2023-04-19T04:21:24.391Z,113.00
2023-04-19T04:21:35.459Z,117.00
2023-04-19T04:21:47.450Z,117.00
2023-04-19T04:21:59.409Z,119.00
2023-04-19T04:22:10.383Z,121.00
2023-04-19T04:22:21.425Z,123.00
2023-04-19T04:22:32.484Z,125.00
2023-04-19T04:22:44.444Z,127.00
2023-04-19T04:22:56.417Z,128.00
2023-04-19T04:23:07.516Z,130.00
2023-04-19T04:23:19.418Z,135.00
2023-04-19T04:23:30.465Z,135.00
2023-04-19T04:23:42.440Z,137.00
2023-04-19T04:23:54.441Z,139.00
2023-04-19T04:24:06.422Z,143.00
2023-04-19T04:24:17.472Z,143.00
2023-04-19T04:24:29.440Z,146.00
2023-04-19T04:24:41.445Z,147.00
2023-04-19T04:24:52.415Z,152.00
2023-04-19T04:25:03.494Z,152.00
2023-04-19T04:25:15.504Z,155.00
2023-04-19T04:25:27.469Z,157.00
2023-04-19T04:25:39.420Z,161.00
2023-04-19T04:25:50.381Z,163.00
2023-04-19T04:26:01.440Z,165.00
2023-04-19T04:26:12.475Z,170.00
2023-04-19T04:26:24.462Z,170.00
2023-04-19T04:26:36.453Z,173.00
2023-04-19T04:26:48.420Z,176.00
2023-04-19T04:27:00.407Z,179.00
2023-04-19T04:27:11.652Z,181.00
2023-04-19T04:27:23.652Z,184.00
2023-04-19T04:27:35.643Z,188.00
2023-04-19T04:27:47.643Z,191.00
2023-04-19T04:27:59.614Z,194.00
2023-04-19T04:28:10.670Z,197.00
2023-04-19T04:28:22.632Z,200.00
2023-04-19T04:28:34.657Z,202.00
2023-04-19T04:28:46.628Z,206.00
2023-04-19T04:28:57.595Z,209.00
2023-04-19T04:29:08.666Z,210.00
2023-04-19T04:29:20.649Z,214.00
2023-04-19T04:29:32.612Z,217.00
2023-04-19T04:29:43.587Z,219.00
2023-04-19T04:29:54.639Z,223.00
2023-04-19T04:30:05.592Z,225.00
2023-04-19T04:30:16.654Z,228.00
2023-04-19T04:30:28.735Z,232.00
2023-04-19T04:30:39.638Z,234.00
2023-04-19T04:30:51.625Z,237.00
2023-04-19T04:31:02.596Z,240.00